TimeEST,TemperatureF,Dew PointF,Humidity,Sea Level PressureIn,VisibilityMPH,Wind Direction,Wind SpeedMPH,Gust SpeedMPH,PrecipitationIn,Events,Conditions,WindDirDegrees,DateUTC
12:53 AM,34.0,30.0,85,30.53,5.0,ESE,5.8,-,N/A,,Clear,120,2012-11-18 05:53:00
1:53 AM,35.1,30.0,82,30.52,5.0,East,3.5,-,N/A,,Haze,90,2012-11-18 06:53:00
2:53 AM,34.0,28.9,82,30.52,5.0,East,3.5,-,N/A,,Haze,90,2012-11-18 07:53:00
3:53 AM,33.1,28.9,85,30.52,5.0,East,5.8,-,N/A,,Clear,90,2012-11-18 08:53:00
4:53 AM,33.1,28.0,82,30.51,4.0,East,5.8,-,N/A,,Haze,90,2012-11-18 09:53:00
5:53 AM,32.0,28.9,88,30.51,3.0,East,3.5,-,N/A,,Clear,100,2012-11-18 10:53:00
6:45 AM,32.0,28.4,87,30.49,2.5,ESE,4.6,-,N/A,,Scattered Clouds,120,2012-11-18 11:45:00
6:53 AM,32.0,28.9,88,30.52,2.5,ESE,5.8,-,N/A,,Scattered Clouds,110,2012-11-18 11:53:00
7:34 AM,32.0,30.2,93,30.50,1.5,ESE,5.8,-,N/A,,Mostly Cloudy,110,2012-11-18 12:34:00
7:53 AM,32.0,30.0,92,30.52,1.8,East,4.6,-,N/A,,Mostly Cloudy,90,2012-11-18 12:53:00
8:49 AM,35.6,32.0,87,30.50,2.0,SE,5.8,-,N/A,,Mostly Cloudy,130,2012-11-18 13:49:00
8:53 AM,35.1,32.0,89,30.53,2.0,SE,4.6,-,N/A,,Mostly Cloudy,130,2012-11-18 13:53:00
9:19 AM,35.6,33.8,93,30.50,3.0,ESE,5.8,-,N/A,,Mostly Cloudy,120,2012-11-18 14:19:00
9:53 AM,39.9,35.1,83,30.52,4.0,ESE,5.8,-,N/A,,Haze,120,2012-11-18 14:53:00
10:53 AM,43.0,35.1,74,30.52,5.0,ESE,5.8,-,N/A,,Haze,120,2012-11-18 15:53:00
11:53 AM,50.0,36.0,59,30.49,7.0,SE,3.5,-,N/A,,Scattered Clouds,140,2012-11-18 16:53:00
12:53 PM,55.0,32.0,42,30.45,10.0,SE,10.4,-,N/A,,Partly Cloudy,140,2012-11-18 17:53:00
1:53 PM,57.0,30.0,36,30.43,10.0,SE,9.2,-,N/A,,Partly Cloudy,140,2012-11-18 18:53:00
2:53 PM,57.0,28.0,33,30.42,10.0,SSE,5.8,-,N/A,,Partly Cloudy,160,2012-11-18 19:53:00
3:53 PM,55.9,28.0,34,30.42,10.0,SE,8.1,-,N/A,,Partly Cloudy,140,2012-11-18 20:53:00
4:53 PM,52.0,26.1,37,30.42,10.0,SE,6.9,-,N/A,,Partly Cloudy,140,2012-11-18 21:53:00
5:53 PM,46.0,27.0,47,30.43,10.0,ESE,5.8,-,N/A,,Partly Cloudy,120,2012-11-18 22:53:00
6:53 PM,44.1,28.0,53,30.43,10.0,ESE,4.6,-,N/A,,Clear,120,2012-11-18 23:53:00
7:53 PM,39.0,28.0,65,30.43,10.0,ESE,5.8,-,N/A,,Clear,110,2012-11-19 00:53:00
8:53 PM,42.1,28.9,60,30.42,10.0,SE,6.9,-,N/A,,Clear,130,2012-11-19 01:53:00
9:53 PM,37.9,28.0,68,30.43,10.0,SE,4.6,-,N/A,,Partly Cloudy,130,2012-11-19 02:53:00
10:53 PM,37.9,28.9,70,30.41,9.0,SE,3.5,-,N/A,,Partly Cloudy,130,2012-11-19 03:53:00
11:53 PM,37.4,28.4,70,30.39,9.0,ESE,3.5,-,N/A,,Partly Cloudy,110,2012-11-19 04:53:00